createdAt,value
2018-03-21T00:00:42.382Z,-0.60
2018-03-21T00:03:10.416Z,-0.60
2018-03-21T00:05:38.003Z,-0.60
2018-03-21T00:08:05.465Z,-0.50
2018-03-21T00:10:32.932Z,-0.50
2018-03-21T00:13:00.755Z,-0.50
2018-03-21T00:15:29.435Z,-0.50
2018-03-21T00:17:57.670Z,-0.50
2018-03-21T00:20:25.139Z,-0.50
2018-03-21T00:22:52.605Z,-0.50
2018-03-21T00:25:20.158Z,-0.50
2018-03-21T00:27:47.720Z,-0.50
2018-03-21T00:30:15.283Z,-0.50
2018-03-21T00:32:42.842Z,-0.50
2018-03-21T00:35:10.398Z,-0.50
2018-03-21T00:37:37.867Z,-0.60
2018-03-21T00:40:05.338Z,-0.60
2018-03-21T00:42:33.586Z,-0.60
2018-03-21T00:45:01.050Z,-0.60
2018-03-21T00:47:28.515Z,-0.60
2018-03-21T00:49:55.982Z,-0.60
2018-03-21T00:52:23.455Z,-0.60
2018-03-21T00:54:51.911Z,-0.60
2018-03-21T00:57:19.382Z,-0.60
2018-03-21T00:59:46.930Z,-0.50
2018-03-21T01:02:14.486Z,-0.50
2018-03-21T01:04:42.559Z,-0.50
2018-03-21T01:07:10.022Z,-0.50
2018-03-21T01:09:37.574Z,-0.50
2018-03-21T01:12:05.139Z,-0.40
2018-03-21T01:14:32.705Z,-0.40
2018-03-21T01:17:00.167Z,-0.40
2018-03-21T01:19:27.719Z,-0.30
2018-03-21T01:21:55.276Z,-0.30
2018-03-21T01:24:22.735Z,-0.30
2018-03-21T01:26:50.201Z,-0.40
2018-03-21T01:29:18.950Z,-0.40
2018-03-21T01:31:46.422Z,-0.40
2018-03-21T01:34:13.994Z,-0.40
2018-03-21T01:36:41.453Z,-0.40
2018-03-21T01:39:09.226Z,-0.40
2018-03-21T01:41:36.694Z,-0.40
2018-03-21T01:44:04.921Z,-0.50
2018-03-21T01:46:32.403Z,-0.50
2018-03-21T01:48:59.870Z,-0.40
2018-03-21T01:51:27.334Z,-0.40
2018-03-21T01:53:54.900Z,-0.40
2018-03-21T01:56:22.377Z,-0.50
2018-03-21T01:58:50.631Z,-0.50
2018-03-21T02:01:18.231Z,-0.50
2018-03-21T02:03:45.671Z,-0.50
2018-03-21T02:06:13.926Z,-0.40
2018-03-21T02:08:41.391Z,-0.40
2018-03-21T02:11:08.854Z,-0.50
2018-03-21T02:13:36.503Z,-0.50
2018-03-21T02:16:04.061Z,-0.50
2018-03-21T02:18:31.531Z,-0.50
2018-03-21T02:20:59.765Z,-0.60
2018-03-21T02:23:27.254Z,-0.60
2018-03-21T02:25:54.814Z,-0.70
2018-03-21T02:28:22.330Z,-0.80
2018-03-21T02:30:49.802Z,-0.80
2018-03-21T02:33:17.290Z,-1.00
2018-03-21T02:35:44.734Z,-1.00
2018-03-21T02:38:12.306Z,-1.10
2018-03-21T02:40:39.770Z,-1.20
2018-03-21T02:43:07.328Z,-1.30
2018-03-21T02:45:34.805Z,-1.30
2018-03-21T02:48:03.039Z,-1.30
2018-03-21T02:50:30.501Z,-1.30
2018-03-21T02:52:58.079Z,-1.30
2018-03-21T02:55:25.557Z,-1.30
2018-03-21T02:57:53.791Z,-1.30
2018-03-21T03:00:21.263Z,-1.40
2018-03-21T03:02:48.831Z,-1.30
2018-03-21T03:05:16.405Z,-1.40
2018-03-21T03:07:43.960Z,-1.30
2018-03-21T03:10:11.439Z,-1.40
2018-03-21T03:12:50.322Z,-1.50
2018-03-21T03:15:19.090Z,-1.50
2018-03-21T03:17:46.646Z,-1.50
2018-03-21T03:20:14.146Z,-1.50
2018-03-21T03:22:42.387Z,-1.50
2018-03-21T03:25:09.874Z,-1.50
2018-03-21T03:27:37.346Z,-1.50
2018-03-21T03:30:04.904Z,-1.50
2018-03-21T03:32:32.370Z,-1.40
2018-03-21T03:34:59.918Z,-1.50
2018-03-21T03:37:27.382Z,-1.40
2018-03-21T03:39:54.859Z,-1.40
2018-03-21T03:42:23.107Z,-1.40
2018-03-21T03:44:50.672Z,-1.40
2018-03-21T03:47:18.146Z,-1.40
2018-03-21T03:49:45.689Z,-1.40
2018-03-21T03:52:13.158Z,-1.40
2018-03-21T03:54:40.636Z,-1.40
2018-03-21T03:57:08.867Z,-1.40
2018-03-21T03:59:36.340Z,-1.40
2018-03-21T04:02:03.811Z,-1.40
2018-03-21T04:04:31.279Z,-1.40
2018-03-21T04:06:59.518Z,-1.40
2018-03-21T04:09:26.990Z,-1.40
2018-03-21T04:11:54.564Z,-1.40
2018-03-21T04:14:22.030Z,-1.40
2018-03-21T04:16:50.263Z,-1.40
2018-03-21T04:19:17.743Z,-1.50
2018-03-21T04:21:45.210Z,-1.50
2018-03-21T04:24:12.673Z,-1.60
2018-03-21T04:26:40.143Z,-1.60
2018-03-21T04:29:08.378Z,-1.70
2018-03-21T04:31:35.853Z,-1.70
2018-03-21T04:34:03.414Z,-1.70
2018-03-21T04:36:30.975Z,-1.80
2018-03-21T04:38:58.447Z,-1.80
2018-03-21T04:41:26.682Z,-1.70
2018-03-21T04:43:54.179Z,-1.80
2018-03-21T04:46:21.634Z,-1.80
2018-03-21T04:48:49.102Z,-1.80
2018-03-21T04:51:17.385Z,-1.80
2018-03-21T04:53:44.806Z,-1.80
2018-03-21T04:56:12.378Z,-1.80
2018-03-21T04:58:39.850Z,-1.80
2018-03-21T05:01:07.395Z,-1.80
2018-03-21T05:03:34.869Z,-1.80
2018-03-21T05:06:02.409Z,-1.80
2018-03-21T05:08:29.975Z,-1.80
2018-03-21T05:10:57.434Z,-1.80
2018-03-21T05:13:24.911Z,-1.80
2018-03-21T05:15:53.166Z,-1.80
2018-03-21T05:18:20.638Z,-1.80
2018-03-21T05:20:48.098Z,-1.80
2018-03-21T05:23:16.343Z,-1.70
2018-03-21T05:25:43.806Z,-1.70
2018-03-21T05:28:12.198Z,-1.70
2018-03-21T05:30:39.759Z,-1.60
2018-03-21T05:33:07.986Z,-1.60
2018-03-21T05:35:35.454Z,-1.60
2018-03-21T05:38:02.950Z,-1.60
2018-03-21T05:40:30.429Z,-1.70
2018-03-21T05:42:58.674Z,-1.80
2018-03-21T05:45:26.135Z,-1.80
2018-03-21T05:47:53.733Z,-1.80
2018-03-21T05:50:21.179Z,-1.80
2018-03-21T05:52:48.644Z,-1.80
2018-03-21T05:55:16.887Z,-1.80
2018-03-21T05:57:44.355Z,-1.80
2018-03-21T06:00:11.818Z,-1.80
2018-03-21T06:02:40.094Z,-1.70
2018-03-21T06:05:07.566Z,-1.70
2018-03-21T06:07:35.807Z,-1.70
2018-03-21T06:10:03.267Z,-1.70
2018-03-21T06:12:30.834Z,-1.70
2018-03-21T06:14:58.402Z,-1.70
2018-03-21T06:17:25.974Z,-1.60
2018-03-21T06:19:53.430Z,-1.70
2018-03-21T06:22:20.990Z,-1.80
2018-03-21T06:24:48.543Z,-1.80
2018-03-21T06:27:16.102Z,-1.80
2018-03-21T06:29:43.581Z,-1.70
2018-03-21T06:32:11.830Z,-1.80
2018-03-21T06:34:39.304Z,-1.70
2018-03-21T06:37:06.774Z,-1.80
2018-03-21T06:39:35.002Z,-1.70
2018-03-21T06:42:02.487Z,-1.70
2018-03-21T06:44:29.950Z,-1.80
2018-03-21T06:46:57.501Z,-1.80
2018-03-21T06:49:25.085Z,-1.70
2018-03-21T06:51:53.347Z,-1.60
2018-03-21T06:54:20.934Z,-1.60
2018-03-21T06:56:49.215Z,-1.50
2018-03-21T06:59:17.443Z,-1.40
2018-03-21T07:01:44.915Z,-1.40
2018-03-21T07:04:12.394Z,-1.30
2018-03-21T07:06:40.652Z,-1.20
2018-03-21T07:09:08.135Z,-1.30
2018-03-21T07:11:36.387Z,-1.20
2018-03-21T07:14:15.830Z,-1.20
2018-03-21T07:16:47.102Z,-1.30
2018-03-21T07:19:15.344Z,-1.30
2018-03-21T07:21:43.632Z,-1.30
2018-03-21T07:24:11.103Z,-1.30
2018-03-21T07:26:38.574Z,-1.30
2018-03-21T07:29:06.877Z,-1.40
2018-03-21T07:31:34.344Z,-1.30
2018-03-21T07:34:01.810Z,-1.30
2018-03-21T07:36:29.295Z,-1.30
2018-03-21T07:38:56.763Z,-1.30
2018-03-21T07:41:24.334Z,-1.30
2018-03-21T07:43:51.874Z,-1.20
2018-03-21T07:46:19.338Z,-1.10
2018-03-21T07:48:46.848Z,-1.00
2018-03-21T07:51:14.310Z,-0.90
2018-03-21T07:53:41.776Z,-0.70
2018-03-21T07:56:09.235Z,-0.70
2018-03-21T07:58:36.699Z,-0.70
2018-03-21T08:01:04.158Z,-0.50
2018-03-21T08:03:31.648Z,-0.50
2018-03-21T08:05:59.115Z,-0.40
2018-03-21T08:08:27.375Z,-0.10
2018-03-21T08:10:54.834Z,-0.10
2018-03-21T08:13:22.390Z,0.00
2018-03-21T08:15:49.861Z,0.20
2018-03-21T08:18:18.130Z,0.30
2018-03-21T08:20:45.589Z,0.20
2018-03-21T08:23:13.054Z,0.30
2018-03-21T08:25:41.323Z,0.30
2018-03-21T08:28:08.875Z,0.20
2018-03-21T08:30:36.446Z,-0.10
2018-03-21T08:33:04.060Z,0.00
2018-03-21T08:35:31.520Z,0.40
2018-03-21T08:37:59.020Z,0.60
2018-03-21T08:40:26.474Z,0.80
2018-03-21T08:42:54.758Z,1.00
2018-03-21T08:45:22.315Z,1.00
2018-03-21T08:47:49.875Z,0.90
2018-03-21T08:50:18.158Z,0.90
2018-03-21T08:52:46.433Z,1.00
2018-03-21T08:55:14.712Z,1.00
2018-03-21T08:57:42.939Z,1.10
2018-03-21T09:00:10.442Z,1.10
2018-03-21T09:02:38.005Z,1.00
2018-03-21T09:05:05.576Z,1.00
2018-03-21T09:07:33.127Z,1.00
2018-03-21T09:10:00.590Z,1.00
2018-03-21T09:12:28.059Z,0.80
2018-03-21T09:14:56.314Z,0.80
2018-03-21T09:17:23.886Z,0.70
2018-03-21T09:19:52.119Z,0.70
2018-03-21T09:22:19.611Z,0.70
2018-03-21T09:24:47.882Z,0.70
2018-03-21T09:27:15.347Z,0.70
2018-03-21T09:29:42.814Z,0.70
2018-03-21T09:32:11.051Z,0.80
2018-03-21T09:34:38.511Z,0.80
2018-03-21T09:37:05.973Z,1.00
2018-03-21T09:39:33.438Z,1.20
2018-03-21T09:42:01.032Z,1.40
2018-03-21T09:44:29.266Z,1.80
2018-03-21T09:46:56.740Z,1.80
2018-03-21T09:49:24.202Z,1.90
2018-03-21T09:51:51.775Z,1.90
2018-03-21T09:54:19.242Z,2.00
2018-03-21T09:56:47.479Z,2.10
2018-03-21T09:59:14.957Z,2.10
2018-03-21T10:01:42.418Z,2.00
2018-03-21T17:38:19.036Z,-0.50
2018-03-21T17:40:46.658Z,-0.50
2018-03-21T17:43:15.386Z,-0.80
2018-03-21T17:45:43.495Z,-0.80
2018-03-21T17:48:12.035Z,-0.80
2018-03-21T17:50:39.503Z,-0.80
2018-03-21T17:53:07.624Z,-0.60
2018-03-21T17:55:35.082Z,-0.40
2018-03-21T17:58:02.558Z,-0.30
2018-03-21T18:00:31.276Z,-0.40
2018-03-21T18:03:00.470Z,-0.50
2018-03-21T18:05:27.919Z,-0.60
2018-03-21T18:07:55.745Z,-0.90
2018-03-21T18:10:23.219Z,-1.00
2018-03-21T18:12:51.448Z,-1.20
2018-03-21T18:15:18.954Z,-1.20
2018-03-21T18:17:47.187Z,-1.50
2018-03-21T18:20:15.178Z,-1.50
2018-03-21T18:22:42.755Z,-1.60
2018-03-21T18:25:11.283Z,-1.80
2018-03-21T18:27:38.752Z,-1.80
2018-03-21T18:30:06.916Z,-1.90
2018-03-21T18:32:34.387Z,-2.00
2018-03-21T18:35:01.856Z,-2.10
2018-03-21T18:37:29.392Z,-2.00
2018-03-21T18:39:56.848Z,-2.00
2018-03-21T18:42:24.303Z,-2.10
2018-03-21T18:44:51.803Z,-2.20
2018-03-21T18:47:19.385Z,-2.20
2018-03-21T18:49:47.619Z,-2.20
2018-03-21T18:52:15.107Z,-2.20
2018-03-21T18:54:42.570Z,-2.20
2018-03-21T18:57:10.040Z,-2.30
2018-03-21T18:59:39.680Z,-2.30
2018-03-21T19:02:07.152Z,-2.30
2018-03-21T19:04:34.654Z,-2.40
2018-03-21T19:07:02.152Z,-2.50
2018-03-21T19:09:29.643Z,-2.50
2018-03-21T19:11:57.334Z,-2.70
2018-03-21T19:14:24.804Z,-2.40
2018-03-21T19:16:53.038Z,-2.20
2018-03-21T19:19:21.048Z,-2.20
2018-03-21T19:21:49.041Z,-2.10
2018-03-21T19:24:17.269Z,-2.10
2018-03-21T19:26:44.727Z,-2.10
2018-03-21T19:29:12.195Z,-2.00
2018-03-21T19:31:39.673Z,-2.00
2018-03-21T19:34:07.906Z,-2.00
2018-03-21T19:36:36.622Z,-1.90
2018-03-21T19:39:04.858Z,-2.30
2018-03-21T19:41:32.355Z,-2.30
2018-03-21T19:44:00.618Z,-2.50
2018-03-21T19:46:28.074Z,-2.70
2018-03-21T19:48:55.991Z,-2.80
2018-03-21T19:51:23.709Z,-2.90
2018-03-21T19:53:51.292Z,-3.00
2018-03-21T19:56:18.743Z,-3.10
2018-03-21T19:58:46.226Z,-3.10
2018-03-21T20:01:13.687Z,-3.10
2018-03-21T20:03:41.159Z,-3.10
2018-03-21T20:06:08.623Z,-3.20
2018-03-21T20:08:36.839Z,-3.30
2018-03-21T20:11:04.465Z,-3.30
2018-03-21T20:13:31.918Z,-3.30
2018-03-21T20:15:59.423Z,-3.40
2018-03-21T20:18:26.879Z,-3.40
2018-03-21T20:20:54.345Z,-3.50
2018-03-21T20:23:21.909Z,-3.50
2018-03-21T20:25:49.363Z,-3.50
2018-03-21T20:28:16.835Z,-3.50
2018-03-21T21:16:37.081Z,-3.60
2018-03-21T21:19:04.555Z,-4.00
2018-03-21T21:21:32.339Z,-4.00
2018-03-21T21:23:59.911Z,-3.80
2018-03-21T21:26:27.599Z,-3.60
2018-03-21T21:28:55.823Z,-3.40
2018-03-21T21:31:23.402Z,-3.40
2018-03-21T21:33:50.857Z,-3.50
2018-03-21T21:36:18.679Z,-3.60
2018-03-21T21:38:46.140Z,-3.60
2018-03-21T21:41:14.290Z,-3.80
2018-03-21T21:43:42.519Z,-3.90
2018-03-21T21:46:10.999Z,-3.90
2018-03-21T21:48:38.486Z,-4.00
2018-03-21T21:51:06.672Z,-4.10
2018-03-21T21:53:34.571Z,-4.20
2018-03-21T21:56:02.641Z,-4.30
2018-03-21T21:58:30.114Z,-4.30
2018-03-21T22:00:58.399Z,-4.30
2018-03-21T22:03:25.860Z,-4.30
2018-03-21T22:05:53.404Z,-4.40
2018-03-21T22:08:20.869Z,-4.40
2018-03-21T22:10:48.342Z,-4.50
2018-03-21T22:13:15.807Z,-4.50
2018-03-21T22:15:43.363Z,-4.50
2018-03-21T22:18:10.827Z,-4.30
2018-03-21T22:20:38.389Z,-4.20
2018-03-21T22:23:05.922Z,-4.10
2018-03-21T22:25:33.419Z,-4.10
2018-03-21T22:28:00.897Z,-4.10
2018-03-21T22:30:29.702Z,-4.00
2018-03-21T22:32:57.980Z,-4.10
2018-03-21T22:35:26.198Z,-4.20
2018-03-21T22:37:53.682Z,-4.20
2018-03-21T22:40:21.146Z,-4.10
2018-03-21T22:42:48.602Z,-4.10
2018-03-21T22:45:16.067Z,-4.10
2018-03-21T22:47:43.525Z,-4.10
2018-03-21T22:50:11.791Z,-4.20
2018-03-21T22:52:39.870Z,-4.00
2018-03-21T22:55:07.328Z,-4.10
2018-03-21T22:57:35.710Z,-4.20
2018-03-21T23:00:03.170Z,-4.00
2018-03-21T23:02:30.824Z,-4.00
2018-03-21T23:04:59.054Z,-3.80
2018-03-21T23:07:26.976Z,-3.80
2018-03-21T23:09:54.442Z,-3.70
2018-03-21T23:12:22.672Z,-3.80
2018-03-21T23:14:50.766Z,-3.80
2018-03-21T23:17:19.246Z,-3.90
2018-03-21T23:19:46.717Z,-4.00
2018-03-21T23:22:14.991Z,-4.00
2018-03-21T23:24:42.463Z,-4.10
2018-03-21T23:27:10.734Z,-4.20
2018-03-21T23:29:39.435Z,-4.30
2018-03-21T23:32:07.671Z,-4.50
2018-03-21T23:34:35.192Z,-4.60
2018-03-21T23:37:03.440Z,-4.50
2018-03-21T23:39:31.840Z,-4.60
2018-03-21T23:42:00.091Z,-4.70
2018-03-21T23:44:27.556Z,-4.70
2018-03-21T23:46:55.162Z,-4.70
2018-03-21T23:49:22.645Z,-4.80
2018-03-21T23:51:50.619Z,-4.80
2018-03-21T23:54:18.082Z,-4.70
2018-03-21T23:56:45.556Z,-4.80
2018-03-21T23:59:13.723Z,-4.80
